Latest Weather Observations for Carnarvon

IDW60801

Issued at 4:23 pm WST Thursday 18 August 2022 (issued every 10 minutes, with the page automatically refreshed every 10 minutes)

About weather observations | Map of weather stations | Latest weather observations for WA | Other Formats
Station Details ID: 006011 Name: CARNARVON AIRPORT Lat: -24.89 Lon: 113.67 Height: 4.0 m
Data from the previous 72 hours. | See also: Recent months at Carnarvon
Date/Time
WST
Temp
°C
App
Temp
°C
Dew
Point
°C
Rel
Hum
%
Delta-T
°C
Wind Press
QNH
hPa
Press
MSL
hPa
Rain since
9am
mm
Dir  Spd
km/h
Gust
km/h
Spd
kts
Gust
kts
18/04:00pm 20.1 14.0 9.9 52 5.4 S 32 41 17 22 1021.4 1021.4 0.0
18/03:30pm 20.2 14.2 10.9 55 5.1 S 33 43 18 23 1021.4 1021.4 0.0
18/03:00pm 20.5 14.8 11.2 55 5.1 S 32 46 17 25 1021.5 1021.5 0.0
18/02:30pm 21.1 15.9 9.0 46 6.4 SSE 26 39 14 21 1021.7 1021.7 0.0
18/02:00pm 21.9 16.6 7.0 38 7.6 SE 24 39 13 21 1022.0 1022.0 0.0
18/01:30pm 21.6 16.3 6.7 38 7.6 SE 24 35 13 19 1022.4 1022.4 0.0
18/01:00pm 20.9 15.6 6.8 40 7.1 SE 24 37 13 20 1022.8 1022.8 0.0
18/12:30pm 20.5 14.4 6.8 41 6.9 SE 28 37 15 20 1023.3 1023.3 0.0
18/12:00pm 20.4 14.7 6.7 41 6.9 SE 26 35 14 19 1023.9 1023.8 0.0
18/11:30am 19.8 13.4 6.9 43 6.5 SE 30 43 16 23 1024.3 1024.2 0.0
18/11:00am 19.3 13.0 7.4 46 6.0 SE 30 39 16 21 1024.8 1024.7 0.0
18/10:30am 18.6 12.8 8.0 50 5.4 SE 28 43 15 23 1025.1 1025.0 0.0
18/10:00am 18.4 12.2 9.2 55 4.8 SE 32 43 17 23 1025.1 1025.0 0.0
18/09:30am 16.9 10.5 8.6 58 4.3 SE 32 41 17 22 1025.1 1025.0 0.0
18/09:00am 16.2 10.7 9.2 63 3.6 SE 28 37 15 20 1025.2 1025.1 0.0
18/08:30am 15.2 11.6 9.8 70 2.8 SE 19 32 10 17 1025.0 1024.9 0.0
18/08:00am 13.4 10.7 10.2 81 1.6 SE 15 20 8 11 1024.8 1024.7 0.0
18/07:30am 11.8 9.4 9.9 88 1.0 SSE 13 15 7 8 1024.3 1024.2 0.0
18/07:00am 10.7 8.0 8.8 88 0.9 SE 13 13 7 7 1024.1 1024.0 0.0
18/06:30am 10.9 8.5 8.7 86 1.1 SE 11 13 6 7 1023.7 1023.7 0.0
18/06:00am 12.1 9.1 9.1 82 1.5 SE 15 17 8 9 1023.1 1023.1 0.0
18/05:30am 12.9 9.5 9.0 77 2.0 SE 17 19 9 10 1022.9 1022.9 0.0
18/05:00am 13.7 10.3 9.0 73 2.4 SE 17 22 9 12 1022.6 1022.6 0.0
18/04:30am 15.2 11.5 9.3 68 3.0 SE 19 22 10 12 1022.3 1022.3 0.0
18/04:00am 15.4 11.6 9.7 69 2.9 SE 20 28 11 15 1022.2 1022.2 0.0
18/03:30am 15.8 12.0 9.7 67 3.2 SE 20 26 11 14 1022.3 1022.3 0.0
18/03:00am 16.0 12.4 9.9 67 3.2 SE 19 24 10 13 1022.3 1022.3 0.0
18/02:30am 16.3 12.0 9.3 63 3.6 SSE 22 32 12 17 1022.4 1022.4 0.0
18/02:00am 16.5 10.7 8.0 57 4.3 SSE 28 37 15 20 1022.4 1022.4 0.0
18/01:30am 16.0 11.5 8.5 61 3.8 S 22 32 12 17 1022.6 1022.6 0.0
18/01:00am 17.0 10.4 8.7 58 4.2 S 33 43 18 23 1022.6 1022.6 0.0
18/12:30am 17.0 12.7 10.8 67 3.3 SSE 24 39 13 21 1022.7 1022.7 0.0
18/12:00am 17.2 14.2 12.1 72 2.8 SSE 19 28 10 15 1022.6 1022.6 0.0
 
Date/Time
WST
Temp
°C
App
Temp
°C
Dew
Point
°C
Rel
Hum
%
Delta-T
°C
Wind Press
QNH
hPa
Press
MSL
hPa
Rain since
9am
mm
Dir  Spd
km/h
Gust
km/h
Spd
kts
Gust
kts
17/11:30pm 17.1 12.1 12.2 73 2.7 S 30 48 16 26 1022.6 1022.6 0.0
17/11:28pm 17.3 12.7 12.2 72 2.8 SSE 28 48 15 26 1022.6 1022.6 0.0
17/11:00pm 17.3 14.0 12.8 75 2.5 SSE 22 26 12 14 1022.7 1022.7 0.0
17/10:30pm 17.8 14.2 12.9 73 2.7 S 24 33 13 18 1022.5 1022.5 0.0
17/10:00pm 18.3 13.8 12.7 70 3.1 S 28 37 15 20 1022.4 1022.4 0.0
17/09:37pm 17.8 13.4 12.9 73 2.7 S 28 48 15 26 1022.3 1022.3 0.0
17/09:30pm 17.9 14.2 12.6 71 2.9 S 24 32 13 17 1022.3 1022.3 0.0
17/09:00pm 18.6 13.1 12.6 68 3.3 SSW 33 43 18 23 1022.0 1022.0 0.0
17/08:30pm 19.1 14.5 12.4 65 3.7 SSW 28 39 15 21 1021.6 1021.6 0.0
17/08:00pm 19.4 14.4 13.3 68 3.5 SSW 32 44 17 24 1021.3 1021.3 0.0
17/07:30pm 19.1 15.8 15.0 77 2.4 SSW 26 35 14 19 1021.0 1021.0 0.0
17/07:00pm 19.1 15.5 15.2 78 2.3 S 28 35 15 19 1020.7 1020.7 0.0
17/06:30pm 19.4 15.6 14.6 74 2.8 SSW 28 35 15 19 1020.3 1020.3 0.0
17/06:00pm 19.6 15.6 15.3 76 2.5 SW 30 39 16 21 1020.0 1020.0 0.0
17/05:30pm 19.7 16.4 15.1 75 2.7 SW 26 37 14 20 1020.0 1020.0 0.0
17/05:00pm 19.8 16.8 14.8 73 2.9 SW 24 35 13 19 1019.7 1019.7 0.0
17/04:30pm 21.7 18.2 13.3 59 4.8 SW 24 32 13 17 1019.4 1019.4 0.0
17/04:00pm 21.9 18.1 12.5 55 5.3 SW 24 30 13 16 1019.4 1019.4 0.0
17/03:30pm 22.1 18.3 12.4 54 5.5 SW 24 35 13 19 1019.2 1019.2 0.0
17/03:00pm 22.0 17.8 12.5 54 5.4 WSW 26 33 14 18 1019.1 1019.1 0.0
17/02:30pm 22.4 18.9 12.1 52 5.8 WSW 22 32 12 17 1019.0 1019.0 0.0
17/02:00pm 21.8 18.1 12.6 56 5.2 WSW 24 30 13 16 1019.1 1019.1 0.0
17/01:30pm 21.7 17.8 12.0 54 5.4 WSW 24 28 13 15 1019.3 1019.3 0.0
17/01:00pm 21.8 18.6 11.8 53 5.6 WSW 20 26 11 14 1019.7 1019.7 0.0
17/12:30pm 21.0 18.0 12.7 59 4.7 WSW 20 33 11 18 1019.9 1019.9 0.0
17/12:00pm 21.4 18.0 11.4 53 5.5 WSW 20 28 11 15 1020.1 1020.1 0.0
17/11:30am 21.8 18.7 12.1 54 5.5 WSW 20 28 11 15 1020.2 1020.2 0.0
17/11:00am 21.8 18.1 11.5 52 5.7 WSW 22 28 12 15 1020.5 1020.5 0.0
17/10:30am 21.3 17.9 11.1 52 5.6 WSW 20 28 11 15 1020.6 1020.6 0.0
17/10:00am 21.2 18.1 12.3 57 5.0 WSW 20 30 11 16 1020.6 1020.6 0.0
17/09:30am 20.9 17.6 11.5 55 5.2 WSW 20 26 11 14 1020.3 1020.3 0.0
17/09:00am 20.1 18.3 13.3 65 3.9 SW 15 20 8 11 1020.0 1020.0 4.4
17/08:30am 20.6 19.2 13.3 63 4.2 WSW 13 17 7 9 1019.6 1019.6 4.4
17/08:00am 19.4 15.9 10.9 58 4.6 WSW 20 26 11 14 1019.4 1019.4 4.4
17/07:30am 19.3 16.9 11.3 60 4.4 WSW 15 20 8 11 1018.9 1018.9 4.4
17/07:00am 18.6 15.5 10.2 58 4.5 WSW 17 24 9 13 1018.5 1018.5 4.4
17/06:30am 18.3 16.0 11.8 66 3.6 W 15 20 8 11 1018.2 1018.2 4.4
17/06:00am 18.9 16.3 10.7 59 4.4 WSW 15 20 8 11 1017.7 1017.7 4.4
17/05:30am 18.4 16.1 10.3 59 4.3 WSW 13 20 7 11 1017.3 1017.3 4.4
17/05:00am 18.0 14.9 10.4 61 4.1 W 17 20 9 11 1017.0 1017.0 4.4
17/04:30am 18.4 14.7 10.3 59 4.3 WSW 20 28 11 15 1016.8 1016.8 4.4
17/04:00am 18.5 14.6 9.3 55 4.8 WSW 20 32 11 17 1016.6 1016.6 4.4
17/03:30am 19.0 14.4 9.5 54 5.0 WSW 24 32 13 17 1016.7 1016.7 4.4
17/03:00am 18.8 15.1 11.4 62 4.0 WSW 22 32 12 17 1016.7 1016.7 4.4
17/02:30am 18.1 15.7 11.4 65 3.7 WSW 15 22 8 12 1016.8 1016.8 4.4
17/02:00am 17.8 15.0 11.4 66 3.5 W 17 20 9 11 1016.8 1016.8 4.4
17/01:30am 18.1 15.2 11.0 63 3.8 W 17 24 9 13 1016.9 1016.9 4.4
17/01:00am 18.1 15.5 10.7 62 4.0 WSW 15 24 8 13 1016.9 1016.9 4.4
17/12:30am 18.3 15.1 11.1 63 3.9 WSW 19 26 10 14 1016.9 1016.9 4.4
17/12:00am 18.3 14.9 11.1 63 3.9 WSW 20 30 11 16 1016.9 1016.9 4.4
 
Date/Time
WST
Temp
°C
App
Temp
°C
Dew
Point
°C
Rel
Hum
%
Delta-T
°C
Wind Press
QNH
hPa
Press
MSL
hPa
Rain since
9am
mm
Dir  Spd
km/h
Gust
km/h
Spd
kts
Gust
kts
16/11:30pm 18.1 15.0 12.3 69 3.2 WSW 20 26 11 14 1016.9 1016.9 4.4
16/11:00pm 18.4 15.8 13.3 72 2.9 WSW 19 30 10 16 1016.8 1016.8 4.4
16/10:30pm 18.2 16.4 14.5 79 2.1 SW 17 19 9 10 1016.9 1016.9 4.4
16/10:00pm 18.2 17.8 15.1 82 1.8 WSW 11 13 6 7 1016.7 1016.7 4.4
16/09:30pm 18.5 17.3 15.0 80 2.0 WSW 15 20 8 11 1016.7 1016.7 4.4
16/09:00pm 17.2 16.4 16.2 94 0.6 WSW 15 22 8 12 1016.7 1016.7 4.4
16/08:30pm 17.8 19.1 17.2 96 0.4 WNW 6 6 3 3 1016.4 1016.4 4.4
16/08:00pm 18.1 19.6 17.5 96 0.4 WNW 6 9 3 5 1016.2 1016.2 4.4
16/07:30pm 17.8 19.1 17.2 96 0.4 NW 6 7 3 4 1015.9 1015.9 4.4
16/07:00pm 17.6 18.7 17.0 96 0.4 NW 7 11 4 6 1015.7 1015.7 4.4
16/06:30pm 17.5 18.4 16.7 95 0.5 WNW 7 11 4 6 1015.4 1015.4 4.4
16/06:00pm 17.3 17.7 16.3 94 0.6 W 9 13 5 7 1015.1 1015.1 3.4
16/05:58pm 17.3 17.7 16.3 94 0.6 W 9 15 5 8 1014.9 1014.9 3.4
16/05:39pm 17.4 17.0 16.3 93 0.7 W 13 17 7 9 1015.3 1015.3 3.0
16/05:30pm 17.4 16.7 16.3 93 0.7 WSW 15 20 8 11 1015.1 1015.1 2.6
16/05:00pm 17.5 15.7 16.0 91 0.9 WSW 20 28 11 15 1014.9 1014.9 2.2
16/04:30pm 18.0 16.3 16.2 89 1.1 WSW 20 28 11 15 1014.9 1014.9 2.2
16/04:24pm 17.9 16.2 16.2 90 1.0 WSW 20 28 11 15 1014.8 1014.8 2.2
16/04:00pm 17.8 15.4 16.3 91 0.9 WSW 24 33 13 18 1014.4 1014.4 2.2
16/03:54pm 17.7 15.2 16.2 91 0.9 WSW 24 33 13 18 1014.5 1014.5 2.2
16/03:30pm 17.9 15.6 16.6 92 0.8 WSW 24 35 13 19 1014.1 1014.1 2.0
16/03:00pm 18.3 15.6 16.5 89 1.1 WSW 26 39 14 21 1014.0 1014.0 1.4
16/02:33pm 18.4 17.0 16.9 91 0.9 WSW 20 32 11 17 1013.7 1013.7 1.4
16/02:30pm 18.4 17.0 17.1 92 0.8 WSW 20 30 11 16 1013.6 1013.6 1.4
16/02:25pm 18.3 16.9 17.1 93 0.7 WSW 20 28 11 15 1013.5 1013.5 1.4
16/02:04pm 18.7 15.9 17.4 92 0.8 WSW 28 41 15 22 1013.6 1013.6 1.4
16/02:00pm 18.6 16.2 17.3 92 0.8 WSW 26 35 14 19 1013.6 1013.6 1.4
16/01:51pm 18.9 16.6 17.6 92 0.8 WSW 26 37 14 20 1013.6 1013.6 1.4
16/01:46pm 19.1 17.2 17.6 91 0.9 WSW 24 37 13 20 1013.6 1013.6 1.4
16/01:36pm 19.0 16.9 17.1 89 1.2 WSW 24 32 13 17 1013.5 1013.5 1.4
16/01:30pm 19.0 17.3 17.3 90 1.0 WSW 22 32 12 17 1013.5 1013.5 1.4
16/01:15pm 19.5 18.6 18.3 93 0.7 WSW 20 33 11 18 1013.5 1013.5 1.4
16/01:00pm 19.6 18.0 18.4 93 0.7 W 24 32 13 17 1013.5 1013.5 1.2
16/12:52pm 19.8 18.6 18.5 92 0.8 W 22 30 12 16 1013.6 1013.6 1.2
16/12:30pm 19.9 20.6 18.9 94 0.6 W 13 17 7 9 1013.6 1013.6 1.2
16/12:21pm 19.9 20.7 19.1 95 0.5 W 13 17 7 9 1013.7 1013.7 1.2
16/12:11pm 19.5 20.1 18.7 95 0.5 W 13 17 7 9 1014.0 1014.0 1.0
16/12:00pm 19.5 19.4 18.7 95 0.5 W 17 22 9 12 1014.0 1014.0 1.0
16/11:48am 19.7 19.7 18.9 95 0.5 WNW 17 22 9 12 1014.0 1014.0 1.0
16/11:30am 19.9 20.3 18.9 94 0.6 W 15 20 8 11 1014.2 1014.2 1.0
16/11:15am 19.8 20.5 18.8 94 0.6 W 13 20 7 11 1014.2 1014.2 1.0
16/11:00am 19.9 21.1 19.1 95 0.5 W 11 15 6 8 1014.4 1014.4 0.8
16/10:59am 19.8 21.0 19.0 95 0.5 W 11 15 6 8 1014.4 1014.4 0.8
16/10:30am 19.7 21.2 18.9 95 0.5 W 9 13 5 7 1014.5 1014.5 0.6
16/10:01am 19.5 20.2 18.8 96 0.4 W 13 17 7 9 1014.4 1014.4 0.6
16/10:00am 19.4 20.4 18.7 96 0.4 W 11 17 6 9 1014.3 1014.3 0.6
16/09:54am 19.3 20.3 18.6 96 0.4 W 11 17 6 9 1014.3 1014.3 0.6
16/09:38am 19.2 20.1 18.5 96 0.4 WSW 11 17 6 9 1014.2 1014.2 0.4
16/09:36am 19.2 20.1 18.5 96 0.4 WSW 11 17 6 9 1014.2 1014.2 0.4
16/09:30am 19.2 19.4 18.5 96 0.4 WSW 15 19 8 10 1014.3 1014.3 0.2
16/09:26am 19.1 19.2 18.4 96 0.4 WSW 15 19 8 10 1014.3 1014.3 0.2
16/09:16am 19.2 19.0 18.4 95 0.5 W 17 20 9 11 1014.0 1014.0 0.0
16/09:00am 19.7 20.8 18.9 95 0.5 WNW 11 15 6 8 1013.9 1013.9 10.2
16/08:59am 19.6 20.7 18.8 95 0.5 WNW 11 15 6 8 1013.9 1013.9 10.2
16/08:31am 19.7 20.8 18.9 95 0.5 WNW 11 15 6 8 1013.6 1013.6 9.6
16/08:30am 19.6 20.7 18.8 95 0.5 WNW 11 15 6 8 1013.6 1013.6 9.6
16/08:25am 19.6 20.7 18.8 95 0.5 WNW 11 13 6 7 1013.6 1013.6 9.4
16/08:00am 19.6 20.2 18.6 94 0.6 WNW 13 17 7 9 1013.4 1013.4 9.2
16/07:45am 19.8 20.0 18.6 93 0.7 WNW 15 19 8 10 1013.1 1013.1 9.0
16/07:32am 19.9 20.2 18.7 93 0.7 W 15 19 8 10 1012.8 1012.8 9.0
16/07:30am 20.0 20.3 18.8 93 0.8 W 15 19 8 10 1012.7 1012.7 9.0
16/07:00am 19.8 20.4 18.6 93 0.7 WNW 13 19 7 10 1012.3 1012.3 8.8
16/06:30am 19.9 21.5 19.1 95 0.5 NW 9 11 5 6 1011.9 1011.9 8.8
16/06:15am 19.9 21.4 18.9 94 0.6 NNW 9 13 5 7 1011.7 1011.7 8.8
16/06:00am 19.9 21.0 18.9 94 0.6 NW 11 15 6 8 1011.7 1011.7 8.8
16/05:57am 20.0 21.2 19.0 94 0.6 NW 11 15 6 8 1011.7 1011.7 8.6
16/05:30am 19.9 21.0 18.9 94 0.6 W 11 15 6 8 1011.1 1011.1 8.4
16/05:12am 19.8 20.5 18.8 94 0.6 W 13 17 7 9 1011.1 1011.1 8.4
16/05:00am 19.8 20.1 18.8 94 0.6 WNW 15 20 8 11 1011.3 1011.3 8.4
16/04:41am 20.1 20.5 18.9 93 0.8 W 15 20 8 11 1011.3 1011.3 7.4
16/04:30am 20.2 20.6 19.0 93 0.8 W 15 20 8 11 1011.2 1011.2 6.8
16/04:00am 20.1 20.1 18.9 93 0.8 W 17 26 9 14 1011.2 1011.2 6.8
16/03:51am 20.1 20.2 19.1 94 0.6 WSW 17 24 9 13 1011.2 1011.2 6.8
16/03:40am 20.2 19.8 19.0 93 0.8 WSW 19 26 10 14 1011.3 1011.3 6.6
16/03:30am 20.3 20.0 19.1 93 0.8 WSW 19 24 10 13 1011.3 1011.3 6.0
16/03:22am 20.2 19.7 19.2 94 0.6 WSW 20 28 11 15 1011.2 1011.2 5.8
16/03:16am 20.2 19.7 19.2 94 0.6 WSW 20 30 11 16 1011.2 1011.2 5.8
16/03:07am 20.3 19.1 19.3 94 0.6 WSW 24 32 13 17 1011.1 1011.1 5.8
16/03:03am 20.3 19.1 19.3 94 0.6 WSW 24 33 13 18 1011.2 1011.2 5.6
16/03:00am 20.3 19.1 19.3 94 0.6 WSW 24 33 13 18 1011.3 1011.3 5.2
16/02:30am 21.3 21.3 20.1 93 0.8 W 20 26 11 14 1010.9 1010.9 3.4
16/02:18am 21.8 21.2 20.4 92 0.9 WNW 24 35 13 19 1011.0 1011.0 0.6
16/02:00am 23.1 22.8 21.9 93 0.8 NNW 26 35 14 19 1010.5 1010.5 0.2
16/01:51am 23.1 22.8 21.9 93 0.8 NNW 26 39 14 21 1010.4 1010.4 0.2
16/01:30am 23.2 22.1 21.8 92 0.9 NW 30 43 16 23 1010.4 1010.4 0.2
16/01:28am 23.2 22.1 21.8 92 0.9 NW 30 43 16 23 1010.3 1010.3 0.2
16/01:00am 23.1 22.3 21.7 92 0.9 NW 28 43 15 23 1010.5 1010.5 0.2
16/12:30am 23.2 22.0 21.6 91 1.1 NNW 30 39 16 21 1010.5 1010.5 0.2
16/12:00am 23.5 22.4 21.8 90 1.1 NNW 30 39 16 21 1010.7 1010.7 0.2
 
Date/Time
WST
Temp
°C
App
Temp
°C
Dew
Point
°C
Rel
Hum
%
Delta-T
°C
Wind Press
QNH
hPa
Press
MSL
hPa
Rain since
9am
mm
Dir  Spd
km/h
Gust
km/h
Spd
kts
Gust
kts
15/11:30pm 23.5 23.5 21.6 89 1.3 NW 24 35 13 19 1010.9 1010.9 0.2
15/11:22pm 23.7 22.6 21.8 89 1.3 NNW 30 41 16 22 1010.8 1010.8 0.2
15/11:00pm 23.9 22.4 21.8 88 1.4 NNW 32 43 17 23 1010.8 1010.8 0.2
15/10:30pm 24.0 23.2 21.7 87 1.5 NNW 28 37 15 20 1010.9 1010.9 0.2
15/10:00pm 24.0 22.5 21.7 87 1.5 NNW 32 44 17 24 1010.9 1010.9 0.2
15/09:30pm 24.5 23.1 21.2 82 2.2 NNW 30 39 16 21 1011.0 1011.0 0.2
15/09:00pm 24.6 23.1 20.9 80 2.4 NNW 30 43 16 23 1011.0 1011.0 0.2
15/08:30pm 24.9 23.0 21.0 79 2.6 NNW 32 46 17 25 1011.0 1011.0 0.2
15/08:00pm 24.9 23.2 20.6 77 2.8 NNW 30 41 16 22 1010.7 1010.7 0.2
15/07:30pm 24.9 24.2 20.2 75 3.1 NNW 24 35 13 19 1010.6 1010.6 0.2
15/07:00pm 25.0 24.1 19.8 73 3.4 NNW 24 32 13 17 1010.5 1010.5 0.2
15/06:30pm 25.7 23.5 19.6 69 3.9 NNW 30 41 16 22 1010.1 1010.1 0.2
15/06:00pm 26.1 23.0 18.5 63 4.8 NNW 32 41 17 22 1009.7 1009.7 0.2
15/05:32pm 27.1 23.1 17.6 56 6.0 NNW 35 54 19 29 1009.5 1009.5 0.2
15/05:30pm 27.5 23.0 17.4 54 6.3 NNW 37 54 20 29 1009.4 1009.4 0.2
15/05:07pm 27.7 23.8 16.9 51 6.7 NNW 33 52 18 28 1009.4 1009.4 0.2
15/05:00pm 28.2 24.4 17.1 51 7.0 NNW 33 46 18 25 1009.4 1009.4 0.2
15/04:46pm 28.7 23.5 16.6 48 7.5 NNW 39 61 21 33 1009.3 1009.3 0.2
15/04:30pm 28.7 24.1 17.2 49 7.2 N 37 50 20 27 1009.4 1009.4 0.2

Other formats

Comma delimited format used in spreadsheet applications
http://www.bom.gov.au/fwo/IDW60801/IDW60801.94300.axf

JavaScript Object Notation format (JSON) in row-major order
http://www.bom.gov.au/fwo/IDW60801/IDW60801.94300.json

Data quality

Most of these data are generated automatically and are frequently updated. Quality checks on data are not normally performed. It is possible for incorrect values to appear. Refer to information at About Latest Weather Observations and please check the disclaimer before using these data.